Augusta, MT

11:01 PM MDT on August 20, 2014 (GMT -0600)
Upper Elk Creek | Change Station
CLOSE
Current Station
Personal Weather Station
Location: Augusta, MT
Elevation: 5213 ft
Nearby Weather Stations

Elev 5213 ft 47.33 °N, 112.58 °W | Updated 11 seconds ago

Overcast
Overcast
58.5 °F
Feels Like 58.5 °F
N
3.7
Wind Variable Wind from North
Gusts 3.7 mph

Today
High -- | Low -- °F
--% Chance of Precip.
Yesterday
High -- | Low -- °F
Precip. -- in
6:33 AM 8:33 PM
Waning Crescent, 17% visible
Pressure 29.92 in
Visibility 10.0 miles
Clouds Mostly Cloudy 5000 ft
Overcast 8000 ft
Dew Point 48 °F
Humidity 70%
Rainfall 0.06 in
Snow Depth Not available.
UV 0 out of 12
Pollen 7.60 out of 12
Air Quality Not available.
Flu Activity Not available.
METAR KGTF 210453Z 02004KT 10SM BKN050 OVC080 14/11 A2998 RMK AO2 RAB32E47 SLP132 P0001 T01390111

More Conditions Fewer Conditions

Pressure 29.92 in
Visibility 10.0 miles
Clouds Mostly Cloudy 5000 ft
Overcast 8000 ft
Dew Point 48 °F
Humidity 70%
Rainfall 0.06 in
Snow Depth Not available.
UV 0 out of 12
Pollen 7.60 out of 12
Air Quality Not available.
Flu Activity Not available.
METAR KGTF 210453Z 02004KT 10SM BKN050 OVC080 14/11 A2998 RMK AO2 RAB32E47 SLP132 P0001 T01390111

More Conditions Fewer Conditions

10-Day Weather Forecast

Almanac

Astronomy

Aug. 20, 2014 Rise Set
Actual Time 6:33 AM MDT 8:33 PM MDT
Civil Twilight 6:00 AM MDT 9:06 PM MDT
Nautical Twilight 5:19 AM MDT 9:46 PM MDT
Astronomical Twilight 4:34 AM MDT 10:31 PM MDT
Moon 2:09 AM MDT (8/20) 5:28 PM MDT (8/20)
Length of Visible Light 15h 05m
Length of Day
13h 59m
Tomorrow will be 3m 9s shorter.
Waning Crescent, 17% of the Moon is Illuminated
Aug 21
Waning Crescent
Aug 25
New
Sep 2
First Quarter
Sep 8
Full
Sep 15
Last Quarter

Yesterday's Extremes

State Highs State Lows

Community

WunderPhotos

Upload Photos

1,745,857 photos uploaded!

Nearby

Snow Depth

Station Depth Elevation
Waldron 2 in 5600 ft
Mount Lockhart 0 in 6400 ft
Nevada Ridge 0 in 7020 ft
Dupuyer Creek 0 in 5750 ft
Lubrecht Flume 0 in 4680 ft

Earthquake Activity

City Distance Mag. Time & Date
No recent earthquake activity has been reported nearby.
Minimum magnitude displayed is 2.5.

Coastal Water Temperatures

Place Temperature
No Stations Reporting

Nearby Weather Stations